Terminal Aerodrome Forecast
Issued by NWS

Home | Current Version | Previous Version | Text Only | Print | Product List | Glossary On
Versions: 1 2 3 4 5 6 7 8 9 10 11 12
000
FTUS45 KREV 250500
TAFMMH
TAF
KMMH 250530Z 2506/2606 29015G25KT P6SM VCSH SCT025 BKN060
     FM250900 33008KT P6SM SCT060
     FM251700 34011G20KT P6SM SCT080
     FM260400 33006KT P6SM FEW090
      AMD NOT SKED TIL 251400=

USA.gov is the U.S. government's official web portal to all federal, state and local government web resources and services.